Mammoth Lakes, California
Current Conditions -  °F | °C
As of 9:55 PM on Saturday 22 Nov 2014 (Local Time) from KMMH Reporting Station
Clear Clear  
Wind Chill: 29°   Ceiling: Unl
Heat Index: 34°   Visibility: 10mi
Dew Point: 18°   Wind: 6mph
Humidity: 52%   Direction: 280°W
Pressure: 30.19"   Gusts: NA
Location:  37.65°N, 118.97°W
Report Text: KMMH 230555Z AUTO 28005KT 10SM CLR 01/M08 A3019 RMK AO1
Loading
Personal Weather Stations






























Interactive Weather Map New forecast layout! Learn more

10-Day Weather Forecast

Advertisements
Track Severe Weather on mobile